Time;durP1;ratioP1;P1;durP2;ratioP2;P2;SDS_P1;SDS_P2;PMS_P1;PMS_P2;Temp;Humidity;BMP_temperature;BMP_pressure;BME280_temperature;BME280_humidity;BME280_pressure;Samples;Min_cycle;Max_cycle;Signal;HPM_P1;HPM_P2
2022/10/02 00:00:35;;;;;;;5.68;3.20;;;10.20;99.90;;;;;;4993512;28;20894;-72
2022/10/02 00:03:15;;;;;;;4.90;3.03;;;10.20;99.90;;;;;;4993818;28;20201;-71
2022/10/02 00:05:48;;;;;;;5.37;3.50;;;10.30;99.90;;;;;;4993723;28;20449;-71
2022/10/02 00:08:24;;;;;;;13.57;3.00;;;10.40;99.90;;;;;;4994063;28;20510;-71
2022/10/02 00:10:57;;;;;;;7.70;3.70;;;10.40;99.90;;;;;;4993457;28;20256;-70
2022/10/02 00:13:31;;;;;;;8.90;2.70;;;10.50;99.90;;;;;;4994184;28;20446;-72
2022/10/02 00:16:02;;;;;;;7.10;2.50;;;10.50;99.90;;;;;;4994169;28;20445;-72
2022/10/02 00:18:37;;;;;;;5.80;3.37;;;10.50;99.90;;;;;;4992117;28;20414;-71
2022/10/02 00:21:20;;;;;;;7.03;3.43;;;10.50;99.90;;;;;;4974592;28;20389;-70
2022/10/02 00:23:54;;;;;;;5.57;3.07;;;10.40;99.90;;;;;;4974222;28;20393;-70
2022/10/02 00:26:25;;;;;;;7.50;3.47;;;10.40;99.90;;;;;;4979086;28;20453;-70
2022/10/02 00:29:04;;;;;;;6.40;4.20;;;10.30;99.90;;;;;;4992941;28;20848;-70
2022/10/02 00:31:43;;;;;;;11.10;4.83;;;10.30;99.90;;;;;;4992829;28;20454;-70
2022/10/02 00:34:23;;;;;;;7.73;3.10;;;10.30;99.90;;;;;;4990771;28;20406;-70
2022/10/02 00:37:03;;;;;;;7.27;3.53;;;10.30;99.90;;;;;;4973259;28;20414;-70
2022/10/02 00:39:40;;;;;;;11.60;4.33;;;10.40;99.90;;;;;;4977699;28;20437;-71
2022/10/02 00:42:44;;;;;;;3.80;3.00;;;10.30;99.90;;;;;;4992920;28;20426;-71
2022/10/02 00:45:51;;;;;;;14.50;4.20;;;10.30;99.90;;;;;;4993082;28;20463;-71
2022/10/02 00:48:47;;;;;;;10.87;3.00;;;10.20;99.90;;;;;;4989675;28;20456;-70
2022/10/02 00:51:47;;;;;;;5.53;3.30;;;10.20;99.90;;;;;;4994923;28;20427;-72
2022/10/02 00:54:30;;;;;;;4.20;3.20;;;10.30;99.90;;;;;;5003244;28;20480;-71
2022/10/02 00:57:08;;;;;;;7.10;2.73;;;10.30;99.90;;;;;;5014689;28;20924;-72
2022/10/02 00:59:54;;;;;;;6.63;2.70;;;10.30;99.90;;;;;;5017832;28;20485;-71
2022/10/02 01:02:55;;;;;;;8.30;2.63;;;10.30;99.90;;;;;;5016005;28;20517;-71
2022/10/02 01:05:26;;;;;;;8.60;3.20;;;10.30;99.90;;;;;;5014945;28;20496;-70
2022/10/02 01:07:57;;;;;;;5.97;2.90;;;10.30;99.90;;;;;;5014523;28;20438;-69
2022/10/02 01:10:26;;;;;;;13.27;3.93;;;10.30;99.90;;;;;;5014356;28;20461;-71
2022/10/02 01:12:56;;;;;;;12.53;4.17;;;10.30;99.90;;;;;;4998808;28;20450;-71
2022/10/02 01:15:29;;;;;;;12.17;3.20;;;10.30;99.90;;;;;;4992730;28;20450;-70
2022/10/02 01:18:00;;;;;;;12.10;2.80;;;10.30;99.90;;;;;;4992393;28;20438;-70
2022/10/02 01:20:35;;;;;;;7.40;2.80;;;10.30;99.90;;;;;;4992853;28;20410;-72
2022/10/02 01:23:20;;;;;;;9.10;3.27;;;10.30;99.90;;;;;;4992691;28;20416;-72
2022/10/02 01:25:50;;;;;;;4.43;3.10;;;10.20;99.90;;;;;;4984882;28;20457;-70
2022/10/02 01:28:19;;;;;;;7.78;4.53;;;10.20;99.90;;;;;;4972727;28;20390;-71
2022/10/02 01:30:51;;;;;;;8.53;2.67;;;10.20;99.90;;;;;;4972445;28;20275;-70
2022/10/02 01:33:20;;;;;;;13.83;2.80;;;10.20;99.90;;;;;;4991543;28;20516;-70
2022/10/02 01:35:50;;;;;;;9.13;3.30;;;10.20;99.90;;;;;;4992226;28;20412;-72
2022/10/02 01:38:23;;;;;;;16.13;3.23;;;10.10;99.90;;;;;;4984362;28;20397;-72
2022/10/02 01:40:53;;;;;;;11.23;3.77;;;10.10;99.90;;;;;;4980526;28;20964;-72
2022/10/02 01:43:26;;;;;;;4.87;3.37;;;10.20;99.90;;;;;;4986425;28;20760;-70
2022/10/02 01:46:03;;;;;;;6.57;3.30;;;10.10;99.90;;;;;;4991619;28;20444;-71
2022/10/02 01:48:46;;;;;;;5.57;2.80;;;10.10;99.90;;;;;;4991362;28;20909;-71
2022/10/02 01:51:39;;;;;;;5.10;2.27;;;10.00;99.90;;;;;;4991896;28;20383;-72
2022/10/02 01:54:18;;;;;;;5.70;2.92;;;10.00;99.90;;;;;;4991669;28;20409;-71
2022/10/02 01:56:59;;;;;;;8.70;3.23;;;10.00;99.90;;;;;;4991871;28;20262;-71
2022/10/02 01:59:42;;;;;;;13.57;3.50;;;10.00;99.90;;;;;;4991699;28;20407;-70
2022/10/02 02:02:18;;;;;;;7.77;2.97;;;10.00;99.90;;;;;;4991755;28;20472;-70
2022/10/02 02:04:54;;;;;;;8.70;3.50;;;10.00;99.90;;;;;;4986475;28;20486;-71
2022/10/02 02:07:34;;;;;;;8.50;3.27;;;9.90;99.90;;;;;;4984675;28;20529;-72
2022/10/02 02:10:13;;;;;;;6.47;2.97;;;9.90;99.90;;;;;;4991428;28;20811;-72
2022/10/02 02:12:48;;;;;;;8.55;2.95;;;9.90;99.90;;;;;;4991924;28;20548;-71
2022/10/02 02:15:23;;;;;;;4.50;2.60;;;9.80;99.90;;;;;;4992114;28;20219;-71
2022/10/02 02:17:56;;;;;;;7.32;2.22;;;9.80;99.90;;;;;;5031582;23;20238;-71
2022/10/02 02:20:28;;;;;;;13.10;3.20;;;9.80;99.90;;;;;;5024906;28;20196;-70
2022/10/02 02:23:04;;;;;;;11.38;3.13;;;9.80;99.90;;;;;;5025182;28;20428;-70
2022/10/02 02:25:37;;;;;;;4.60;2.17;;;9.80;99.90;;;;;;5018981;28;20304;-70
2022/10/02 02:28:11;;;;;;;7.60;3.10;;;9.80;99.90;;;;;;5010093;28;20487;-70
2022/10/02 02:30:43;;;;;;;8.63;3.40;;;9.80;99.90;;;;;;5025726;28;20428;-70
2022/10/02 02:33:17;;;;;;;8.15;2.58;;;9.80;99.90;;;;;;5009574;28;20912;-70
2022/10/02 02:35:50;;;;;;;14.40;3.17;;;9.80;99.90;;;;;;5006066;28;20594;-70
2022/10/02 02:38:23;;;;;;;10.77;2.60;;;9.80;99.90;;;;;;5006108;28;20193;-69
2022/10/02 02:40:52;;;;;;;10.45;3.60;;;9.80;99.90;;;;;;5017996;28;20432;-69
2022/10/02 02:43:28;;;;;;;8.10;1.92;;;9.80;99.90;;;;;;5016118;28;20194;-68
2022/10/02 02:45:58;;;;;;;8.77;2.80;;;9.80;99.90;;;;;;5003533;28;20301;-71
2022/10/02 02:48:31;;;;;;;6.78;2.22;;;9.80;99.90;;;;;;5017170;28;20435;-71
2022/10/02 02:51:04;;;;;;;6.27;2.47;;;9.70;99.90;;;;;;4993812;28;20278;-69
2022/10/02 02:53:37;;;;;;;5.47;2.10;;;9.70;99.90;;;;;;5012350;28;20460;-71
2022/10/02 02:56:12;;;;;;;9.60;3.20;;;9.70;99.90;;;;;;5004899;28;20554;-69
2022/10/02 02:58:47;;;;;;;4.57;2.55;;;9.70;99.90;;;;;;5009181;28;20281;-69
2022/10/02 03:01:16;;;;;;;7.85;3.03;;;9.70;99.90;;;;;;5002233;28;20571;-71
2022/10/02 03:03:44;;;;;;;8.32;2.90;;;9.70;99.90;;;;;;4991679;28;20654;-70
2022/10/02 03:06:30;;;;;;;4.18;2.85;;;9.70;99.90;;;;;;5010605;28;20780;-70
2022/10/02 03:09:00;;;;;;;13.87;4.13;;;9.60;99.90;;;;;;5012831;28;20598;-69
2022/10/02 03:11:42;;;;;;;4.70;2.50;;;9.60;99.90;;;;;;5014873;28;20454;-69
2022/10/02 03:14:35;;;;;;;10.32;2.60;;;9.60;99.90;;;;;;5004334;28;20460;-69
2022/10/02 03:17:15;;;;;;;5.10;2.30;;;9.60;99.90;;;;;;5008220;28;20239;-69
2022/10/02 03:19:48;;;;;;;12.97;2.90;;;9.60;99.90;;;;;;5013571;28;20556;-69
2022/10/02 03:22:25;;;;;;;9.07;3.13;;;9.70;99.90;;;;;;5024806;28;20432;-71
2022/10/02 03:25:00;;;;;;;11.80;3.08;;;9.60;99.90;;;;;;5008049;28;20479;-70
2022/10/02 03:27:35;;;;;;;8.48;3.50;;;9.60;99.90;;;;;;5006393;28;20709;-70
2022/10/02 03:30:08;;;;;;;6.43;2.28;;;9.60;99.90;;;;;;5012024;28;20189;-70
2022/10/02 03:32:39;;;;;;;4.30;2.60;;;9.60;99.90;;;;;;5020420;28;20232;-70
2022/10/02 03:35:12;;;;;;;7.17;2.47;;;9.60;99.90;;;;;;5013986;28;20863;-71
2022/10/02 03:37:44;;;;;;;13.23;2.70;;;9.60;99.90;;;;;;5015376;28;20578;-70
2022/10/02 03:40:13;;;;;;;11.93;4.83;;;9.60;99.90;;;;;;5018293;28;20786;-70
2022/10/02 03:42:41;;;;;;;9.10;3.25;;;9.60;99.90;;;;;;5021313;28;20435;-71
2022/10/02 03:45:11;;;;;;;5.45;2.63;;;9.70;99.90;;;;;;5015705;28;20264;-70
2022/10/02 03:48:00;;;;;;;7.33;2.87;;;9.70;99.90;;;;;;5003149;28;20195;-70
2022/10/02 03:50:29;;;;;;;9.02;3.03;;;9.60;99.90;;;;;;5014861;28;20410;-71
2022/10/02 03:53:12;;;;;;;3.88;3.08;;;9.60;99.90;;;;;;5013516;28;20208;-70
2022/10/02 03:55:44;;;;;;;7.70;2.05;;;9.60;99.90;;;;;;5017566;28;20223;-70
2022/10/02 03:58:15;;;;;;;11.37;2.83;;;9.50;99.90;;;;;;5018385;28;20201;-70
2022/10/02 04:00:54;;;;;;;12.03;2.40;;;9.50;99.90;;;;;;5008439;28;20504;-70
2022/10/02 04:03:27;;;;;;;7.93;3.20;;;9.60;99.90;;;;;;5008935;28;20493;-71
2022/10/02 04:06:02;;;;;;;4.75;2.38;;;9.70;99.90;;;;;;5014092;28;20473;-71
2022/10/02 04:08:35;;;;;;;5.68;2.38;;;9.70;99.90;;;;;;5012640;28;20674;-70
2022/10/02 04:11:08;;;;;;;9.10;2.22;;;9.70;99.90;;;;;;5016509;28;20217;-69
2022/10/02 04:13:41;;;;;;;8.80;2.90;;;9.70;99.90;;;;;;5014742;28;20572;-69
2022/10/02 04:16:16;;;;;;;6.05;2.70;;;9.70;99.90;;;;;;5004870;28;20452;-70
2022/10/02 04:18:54;;;;;;;6.80;2.95;;;9.70;99.90;;;;;;5028646;28;20193;-71
2022/10/02 04:21:33;;;;;;;10.77;2.17;;;9.70;99.90;;;;;;5014351;28;20583;-70
2022/10/02 04:24:10;;;;;;;5.47;2.40;;;9.80;99.90;;;;;;5023059;28;20263;-70
2022/10/02 04:26:44;;;;;;;6.68;3.63;;;9.80;99.90;;;;;;5015740;28;20225;-70
2022/10/02 04:29:18;;;;;;;3.78;2.63;;;9.80;99.90;;;;;;5003512;28;20190;-69
2022/10/02 04:31:52;;;;;;;9.40;2.50;;;9.90;99.90;;;;;;5020322;28;20278;-70
2022/10/02 04:34:21;;;;;;;4.90;2.80;;;9.90;99.90;;;;;;5014584;28;20505;-69
2022/10/02 04:37:03;;;;;;;11.27;2.30;;;9.90;99.90;;;;;;5025304;28;20201;-70
2022/10/02 04:39:57;;;;;;;14.03;2.47;;;9.90;99.90;;;;;;5011388;28;20411;-70
2022/10/02 04:42:40;;;;;;;8.00;2.40;;;10.00;99.90;;;;;;5007595;28;20412;-69
2022/10/02 04:45:30;;;;;;;5.87;2.23;;;10.00;99.90;;;;;;5001916;28;20454;-70
2022/10/02 04:48:31;;;;;;;9.57;2.60;;;10.10;99.90;;;;;;5013848;28;20966;-71
2022/10/02 04:51:14;;;;;;;3.40;2.67;;;10.20;99.90;;;;;;5013646;28;20204;-70
2022/10/02 04:53:54;;;;;;;7.30;2.53;;;10.20;99.90;;;;;;5014694;28;20555;-70
2022/10/02 04:56:54;;;;;;;8.93;2.20;;;10.30;99.90;;;;;;5013258;28;20473;-70
2022/10/02 04:59:38;;;;;;;5.00;2.90;;;10.40;99.90;;;;;;5013311;28;20671;-69
2022/10/02 05:02:21;;;;;;;6.73;2.00;;;10.50;99.90;;;;;;5013752;28;20502;-70
2022/10/02 05:05:24;;;;;;;7.40;2.33;;;10.50;99.90;;;;;;5017470;28;20447;-71
2022/10/02 05:08:26;;;;;;;8.43;3.50;;;10.50;99.90;;;;;;4982879;28;20551;-70
2022/10/02 05:11:14;;;;;;;6.30;2.70;;;10.60;99.90;;;;;;5015994;28;20460;-70
2022/10/02 05:13:58;;;;;;;9.77;2.07;;;10.70;99.90;;;;;;5016049;28;20464;-70
2022/10/02 05:16:41;;;;;;;13.47;3.33;;;10.70;99.90;;;;;;5013184;28;20456;-70
2022/10/02 05:19:29;;;;;;;4.67;2.10;;;10.70;99.90;;;;;;5002212;28;20491;-70
2022/10/02 05:22:16;;;;;;;10.50;4.07;;;10.70;99.90;;;;;;5004265;28;20463;-69
2022/10/02 05:24:57;;;;;;;5.17;2.13;;;10.70;99.90;;;;;;5006876;28;20445;-70
2022/10/02 05:27:49;;;;;;;4.07;2.40;;;10.70;99.90;;;;;;4997325;28;20389;-70
2022/10/02 05:30:18;;;;;;;7.67;3.20;;;10.60;99.90;;;;;;4996769;28;20465;-71
2022/10/02 05:33:16;;;;;;;10.40;2.60;;;10.60;99.90;;;;;;5023780;28;20531;-71
2022/10/02 05:36:09;;;;;;;11.43;2.27;;;10.50;99.90;;;;;;5014282;28;20472;-70
2022/10/02 05:39:01;;;;;;;8.30;3.80;;;10.50;99.90;;;;;;5012487;28;20421;-69
2022/10/02 05:41:40;;;;;;;6.77;3.83;;;10.60;99.90;;;;;;5010334;28;20408;-69
2022/10/02 05:44:15;;;;;;;15.17;3.13;;;10.60;99.90;;;;;;5021600;28;20917;-69
2022/10/02 05:46:46;;;;;;;4.50;2.40;;;10.60;99.90;;;;;;5004419;28;20938;-70
2022/10/02 05:49:19;;;;;;;7.83;2.87;;;10.70;99.90;;;;;;5007826;28;20407;-70
2022/10/02 05:51:54;;;;;;;6.93;2.63;;;10.70;99.90;;;;;;5004551;28;20520;-70
2022/10/02 05:54:35;;;;;;;9.57;4.20;;;10.70;99.90;;;;;;5018740;28;20550;-69
2022/10/02 05:57:13;;;;;;;8.90;2.20;;;10.80;99.90;;;;;;4999256;28;21019;-70
2022/10/02 05:59:48;;;;;;;4.03;2.50;;;10.90;99.90;;;;;;4999489;28;20428;-71
2022/10/02 06:02:26;;;;;;;2.20;2.00;;;11.10;99.90;;;;;;5009461;28;20446;-69
2022/10/02 06:05:04;;;;;;;3.90;2.73;;;11.20;99.90;;;;;;5005832;28;20431;-70
2022/10/02 06:07:33;;;;;;;6.13;2.30;;;11.30;99.90;;;;;;5012723;28;20996;-72
2022/10/02 06:10:09;;;;;;;4.10;1.90;;;11.40;99.90;;;;;;5012498;28;20528;-70
2022/10/02 06:12:46;;;;;;;4.70;1.53;;;11.50;99.90;;;;;;4999298;28;20498;-70
2022/10/02 06:15:21;;;;;;;4.20;2.00;;;11.60;99.90;;;;;;5008491;28;20481;-70
2022/10/02 06:17:54;;;;;;;8.40;2.03;;;11.60;99.90;;;;;;5012847;28;20446;-70
2022/10/02 06:20:27;;;;;;;4.40;2.23;;;11.70;99.90;;;;;;5018017;28;20953;-70
2022/10/02 06:23:02;;;;;;;7.53;2.30;;;11.80;99.90;;;;;;5014610;28;20406;-70
2022/10/02 06:25:36;;;;;;;8.40;3.00;;;11.80;99.90;;;;;;5012012;28;20442;-70
2022/10/02 06:28:14;;;;;;;7.60;2.40;;;11.80;99.90;;;;;;5019018;28;20537;-69
2022/10/02 06:30:47;;;;;;;13.80;4.53;;;11.80;99.90;;;;;;5004313;28;20435;-70
2022/10/02 06:33:21;;;;;;;19.30;2.70;;;11.70;99.90;;;;;;5012153;28;20473;-73
2022/10/02 06:36:20;;;;;;;7.53;2.83;;;11.70;99.90;;;;;;5019462;28;20938;-69
2022/10/02 06:39:05;;;;;;;6.00;3.03;;;11.60;99.90;;;;;;5010407;28;20448;-69
2022/10/02 06:41:42;;;;;;;7.10;2.17;;;11.60;99.90;;;;;;5000394;28;20842;-69
2022/10/02 06:44:26;;;;;;;8.70;2.70;;;11.60;99.90;;;;;;5006384;28;20961;-70
2022/10/02 06:47:15;;;;;;;8.70;2.53;;;11.60;99.90;;;;;;5008643;28;20477;-69
2022/10/02 06:50:06;;;;;;;7.47;2.80;;;11.70;99.90;;;;;;5013372;28;20538;-70
2022/10/02 06:52:45;;;;;;;12.63;3.87;;;11.80;99.90;;;;;;5002587;28;20429;-70
2022/10/02 06:55:32;;;;;;;5.90;3.50;;;11.80;99.90;;;;;;5008174;28;20567;-70
2022/10/02 06:58:15;;;;;;;3.77;2.93;;;11.80;99.90;;;;;;5024690;28;20472;-70
2022/10/02 07:00:52;;;;;;;7.33;2.50;;;11.90;99.90;;;;;;5018687;28;20448;-70
2022/10/02 07:03:50;;;;;;;9.17;3.60;;;12.00;99.90;;;;;;5009735;28;20407;-70
2022/10/02 07:06:35;;;;;;;6.33;2.80;;;12.00;99.90;;;;;;5006038;28;20511;-71
2022/10/02 07:09:43;;;;;;;9.23;4.50;;;12.10;99.90;;;;;;5006160;28;20507;-71
2022/10/02 07:12:36;;;;;;;10.57;6.33;;;12.10;99.90;;;;;;5009350;28;20476;-70
2022/10/02 07:15:30;;;;;;;16.53;5.00;;;12.20;99.90;;;;;;5014397;28;20512;-70
2022/10/02 07:18:14;;;;;;;5.87;2.93;;;12.40;99.90;;;;;;5002109;28;20452;-70
2022/10/02 07:20:53;;;;;;;7.27;3.80;;;12.50;99.90;;;;;;5010679;28;21080;-70
2022/10/02 07:23:50;;;;;;;6.33;3.90;;;12.60;99.90;;;;;;5009838;28;20788;-70
2022/10/02 07:26:45;;;;;;;9.53;5.13;;;12.60;99.90;;;;;;5001491;28;20490;-71
2022/10/02 07:29:50;;;;;;;17.47;4.90;;;12.50;99.90;;;;;;5013752;28;20456;-70
2022/10/02 07:32:40;;;;;;;13.10;4.67;;;12.60;99.90;;;;;;4994376;28;20436;-71
2022/10/02 07:35:29;;;;;;;8.17;4.03;;;12.70;99.90;;;;;;5022094;28;20537;-71
2022/10/02 07:38:09;;;;;;;17.33;4.30;;;12.90;99.90;;;;;;5020910;28;20515;-70
2022/10/02 07:40:50;;;;;;;8.07;4.20;;;13.00;99.90;;;;;;5021499;28;20424;-68
2022/10/02 07:43:39;;;;;;;8.77;5.20;;;13.10;99.90;;;;;;5007916;28;20540;-71
2022/10/02 07:46:16;;;;;;;9.77;4.50;;;13.20;99.90;;;;;;5006436;28;20831;-71
2022/10/02 07:48:59;;;;;;;6.40;3.83;;;13.30;99.90;;;;;;5006636;28;20424;-70
2022/10/02 07:51:48;;;;;;;8.17;5.30;;;13.50;99.90;;;;;;5010439;28;20492;-70
2022/10/02 07:54:41;;;;;;;11.80;4.80;;;13.50;99.90;;;;;;5010593;28;20408;-71
2022/10/02 07:57:27;;;;;;;8.80;5.10;;;13.70;99.90;;;;;;5019012;28;20543;-70
2022/10/02 08:00:01;;;;;;;8.67;4.70;;;13.80;99.90;;;;;;5013535;28;20406;-70
2022/10/02 08:02:44;;;;;;;9.67;3.90;;;13.90;99.90;;;;;;5006503;28;20438;-70
2022/10/02 08:05:18;;;;;;;8.33;4.40;;;14.20;99.90;;;;;;5004893;28;20458;-71
2022/10/02 08:07:52;;;;;;;8.10;4.57;;;14.50;99.90;;;;;;5008552;28;20837;-70
2022/10/02 08:10:25;;;;;;;14.87;4.17;;;14.70;99.90;;;;;;5016806;28;20399;-69
2022/10/02 08:13:02;;;;;;;6.40;4.23;;;15.00;99.90;;;;;;5004203;28;20890;-69
2022/10/02 08:15:35;;;;;;;8.50;4.63;;;15.20;21.80;;;;;;5007828;28;20538;-71
2022/10/02 08:18:13;;;;;;;13.03;6.03;;;15.10;1.00;;;;;;5051834;23;20519;-70
2022/10/02 08:21:03;;;;;;;13.13;5.10;;;15.20;30.70;;;;;;5026942;28;20439;-71
2022/10/02 08:23:39;;;;;;;12.70;4.73;;;15.20;1.00;;;;;;5037999;28;20846;-70
2022/10/02 08:26:11;;;;;;;15.87;4.47;;;15.10;1.00;;;;;;5033051;28;20426;-70
2022/10/02 08:28:45;;;;;;;9.90;4.70;;;15.30;1.00;;;;;;5032338;28;20535;-70
2022/10/02 08:31:14;;;;;;;4.57;4.17;;;15.50;1.00;;;;;;5025810;28;20425;-70
2022/10/02 08:33:43;;;;;;;8.70;4.03;;;15.40;1.00;;;;;;5023247;28;20407;-70
2022/10/02 08:36:45;;;;;;;14.60;6.00;;;15.30;1.00;;;;;;5019685;28;20472;-70
2022/10/02 08:39:52;;;;;;;26.73;13.93;;;15.20;1.00;;;;;;5016106;28;20414;-70
2022/10/02 08:43:16;;;;;;;11.40;4.27;;;15.40;1.00;;;;;;5017028;28;20470;-71
2022/10/02 08:46:17;;;;;;;9.00;4.87;;;15.60;1.00;;;;;;4964106;28;20435;-71
2022/10/02 08:49:37;;;;;;;10.97;5.10;;;15.80;1.00;;;;;;5003334;28;20403;-70
2022/10/02 08:52:36;;;;;;;19.30;5.97;;;16.00;1.00;;;;;;4975150;28;20431;-70
2022/10/02 08:55:34;;;;;;;11.03;5.33;;;15.90;1.00;;;;;;4973241;28;20422;-71
2022/10/02 08:58:26;;;;;;;10.80;4.50;;;15.90;1.00;;;;;;5013691;28;20434;-70
2022/10/02 09:01:07;;;;;;;10.50;4.50;;;16.00;1.00;;;;;;5003640;28;20485;-71
2022/10/02 09:04:00;;;;;;;13.27;6.50;;;16.00;1.00;;;;;;5015365;28;20424;-71
2022/10/02 09:07:16;;;;;;;19.47;6.60;;;15.90;1.00;;;;;;5020632;28;20422;-71
2022/10/02 09:10:27;;;;;;;10.73;5.30;;;15.90;1.00;;;;;;5008776;28;20543;-70
2022/10/02 09:13:42;;;;;;;17.53;6.13;;;16.00;1.00;;;;;;5008831;28;20492;-71
2022/10/02 09:16:14;;;;;;;10.73;4.97;;;16.10;1.00;;;;;;5009475;28;20524;-70
2022/10/02 09:19:00;;;;;;;10.50;4.43;;;16.10;1.00;;;;;;5015634;28;20533;-69
2022/10/02 09:21:53;;;;;;;7.90;4.47;;;15.90;1.00;;;;;;5021248;28;20794;-73
2022/10/02 09:25:01;;;;;;;9.93;5.10;;;15.80;1.00;;;;;;5011696;28;20436;-71
2022/10/02 09:28:00;;;;;;;8.57;4.03;;;15.80;1.00;;;;;;5010257;28;20559;-71
2022/10/02 09:30:52;;;;;;;12.37;4.30;;;15.80;1.00;;;;;;5016516;28;20764;-71
2022/10/02 09:34:02;;;;;;;11.27;5.33;;;15.80;1.00;;;;;;5025247;28;20489;-70
2022/10/02 09:37:00;;;;;;;14.20;6.23;;;15.80;1.00;;;;;;4975599;28;20457;-71
2022/10/02 09:39:58;;;;;;;14.23;4.50;;;15.90;1.00;;;;;;5020351;28;20415;-71
2022/10/02 09:42:57;;;;;;;10.90;4.40;;;16.00;1.00;;;;;;5008922;28;20956;-70
2022/10/02 09:45:58;;;;;;;6.03;3.80;;;16.10;1.00;;;;;;5022992;28;20479;-70
2022/10/02 09:48:55;;;;;;;9.07;4.13;;;16.10;1.00;;;;;;5008588;28;20425;-71
2022/10/02 09:52:00;;;;;;;9.57;4.43;;;16.00;1.00;;;;;;5014439;28;20433;-70
2022/10/02 09:55:11;;;;;;;11.30;4.50;;;16.20;1.00;;;;;;5022631;28;20425;-71
2022/10/02 09:58:21;;;;;;;8.70;4.77;;;16.40;99.90;;;;;;4988814;28;20455;-71
2022/10/02 10:01:23;;;;;;;8.10;4.30;;;16.40;99.90;;;;;;5014852;28;20461;-71
2022/10/02 10:04:37;;;;;;;11.40;4.30;;;16.50;99.90;;;;;;5004105;28;20476;-70
2022/10/02 10:08:02;;;;;;;5.63;3.53;;;16.80;99.90;;;;;;5005005;28;20432;-69
2022/10/02 10:11:01;;;;;;;9.13;4.50;;;16.70;99.90;;;;;;4970163;28;20415;-71
2022/10/02 10:13:59;;;;;;;12.80;4.40;;;16.40;99.90;;;;;;5019974;28;20404;-70
2022/10/02 10:17:07;;;;;;;14.77;4.30;;;16.20;99.90;;;;;;4995746;28;20472;-70
2022/10/02 10:20:24;;;;;;;10.17;4.10;;;16.00;1.00;;;;;;4983857;28;20437;-70
2022/10/02 10:23:07;;;;;;;12.83;4.63;;;15.60;36.20;;;;;;5009311;28;20504;-70
2022/10/02 10:26:06;;;;;;;12.97;4.27;;;15.10;99.90;;;;;;5008594;28;20463;-71
2022/10/02 10:29:07;;;;;;;9.03;4.40;;;14.90;99.90;;;;;;4977856;28;20771;-72
2022/10/02 10:32:10;;;;;;;9.07;4.57;;;14.90;99.90;;;;;;5020595;28;20497;-71
2022/10/02 10:35:12;;;;;;;12.90;5.43;;;15.40;1.00;;;;;;5001588;28;20774;-72
2022/10/02 10:41:25;;;;;;;6.40;3.00;;;16.00;99.90;;;;;;5013932;28;20490;-71
2022/10/02 10:44:32;;;;;;;16.77;4.60;;;15.80;99.90;;;;;;5002431;28;20805;-70
2022/10/02 10:47:27;;;;;;;8.10;3.83;;;15.60;99.90;;;;;;4956727;28;20455;-71
2022/10/02 10:50:34;;;;;;;10.57;5.73;;;15.30;99.90;;;;;;5012862;28;20506;-71
2022/10/02 10:53:17;;;;;;;8.37;4.33;;;15.30;99.90;;;;;;4973106;28;20715;-71
2022/10/02 10:56:06;;;;;;;9.23;4.67;;;15.40;99.90;;;;;;5006715;28;20470;-72
2022/10/02 10:58:51;;;;;;;8.10;3.20;;;15.30;99.90;;;;;;4998694;28;20517;-72
2022/10/02 11:01:22;;;;;;;7.33;4.20;;;15.10;99.90;;;;;;5009839;28;20403;-70
2022/10/02 11:04:16;;;;;;;9.80;3.87;;;14.90;99.90;;;;;;5012645;28;20819;-71
2022/10/02 11:07:06;;;;;;;5.03;3.10;;;14.80;99.90;;;;;;5006771;28;20444;-70
2022/10/02 11:10:06;;;;;;;4.90;4.40;;;14.50;99.90;;;;;;5002051;28;20404;-70
2022/10/02 11:13:04;;;;;;;9.50;4.10;;;14.30;99.90;;;;;;5002258;28;20407;-70
2022/10/02 11:16:24;;;;;;;5.47;3.50;;;14.10;99.90;;;;;;5000520;28;20548;-71
2022/10/02 11:19:39;;;;;;;9.40;4.23;;;14.00;99.90;;;;;;5013379;28;20479;-71
2022/10/02 11:22:27;;;;;;;5.30;3.37;;;13.80;99.90;;;;;;5007378;28;20446;-71
2022/10/02 11:25:12;;;;;;;5.77;3.50;;;13.80;99.90;;;;;;5003670;28;20408;-71
2022/10/02 11:28:06;;;;;;;6.73;4.00;;;13.60;99.90;;;;;;5002599;28;20790;-72
2022/10/02 11:30:45;;;;;;;7.93;4.93;;;13.50;99.90;;;;;;5007059;28;20837;-69
2022/10/02 11:33:39;;;;;;;6.20;4.27;;;13.40;99.90;;;;;;5011558;28;20458;-70
2022/10/02 11:36:40;;;;;;;10.87;5.30;;;13.50;99.90;;;;;;5007872;28;21194;-71
2022/10/02 11:39:34;;;;;;;6.10;4.17;;;13.80;99.90;;;;;;5005632;28;20460;-70
2022/10/02 11:42:32;;;;;;;7.17;3.70;;;14.10;99.90;;;;;;5012287;28;20503;-71
2022/10/02 11:45:28;;;;;;;5.07;4.53;;;14.20;99.90;;;;;;4982672;28;20870;-69
2022/10/02 11:48:24;;;;;;;4.47;3.50;;;14.40;1.00;;;;;;5012421;28;20538;-72
2022/10/02 11:51:10;;;;;;;9.47;4.17;;;14.70;1.00;;;;;;5000262;28;20447;-71
2022/10/02 11:53:54;;;;;;;9.10;4.60;;;14.80;95.20;;;;;;5012273;28;20402;-71
2022/10/02 11:56:42;;;;;;;5.20;3.97;;;15.00;99.90;;;;;;5015134;28;20562;-70
2022/10/02 11:59:28;;;;;;;11.13;5.40;;;15.20;99.90;;;;;;5011513;28;20516;-71
2022/10/02 12:02:03;;;;;;;11.07;5.03;;;15.30;99.90;;;;;;5023786;28;20502;-71
2022/10/02 12:04:45;;;;;;;8.13;5.30;;;15.50;99.90;;;;;;5000691;28;20941;-72
2022/10/02 12:07:27;;;;;;;8.50;3.90;;;15.70;99.90;;;;;;5015116;28;20435;-71
2022/10/02 12:10:20;;;;;;;8.07;4.37;;;15.80;99.90;;;;;;5015917;28;20407;-71
2022/10/02 12:13:01;;;;;;;15.50;4.10;;;16.00;99.90;;;;;;5009183;28;20400;-70
2022/10/02 12:15:37;;;;;;;5.63;4.70;;;16.00;99.90;;;;;;5021334;28;20510;-72
2022/10/02 12:18:27;;;;;;;9.03;4.07;;;16.10;99.90;;;;;;5011417;28;20553;-71
2022/10/02 12:27:08;;;;;;;7.70;2.83;;;16.60;99.90;;;;;;5033942;28;20529;-72
2022/10/02 12:30:06;;;;;;;3.70;2.87;;;16.70;99.90;;;;;;5016383;28;20531;-71
2022/10/02 12:32:53;;;;;;;6.90;2.60;;;16.80;99.90;;;;;;5008500;28;20488;-72
2022/10/02 12:35:37;;;;;;;7.10;3.10;;;17.00;99.90;;;;;;5019736;28;20448;-72
2022/10/02 12:38:24;;;;;;;6.70;2.60;;;16.80;99.90;;;;;;5012762;28;21000;-70
2022/10/02 12:41:04;;;;;;;4.30;3.10;;;17.00;98.30;;;;;;5017577;28;20432;-71
2022/10/02 12:44:12;;;;;;;4.50;2.40;;;17.00;97.80;;;;;;5008417;28;20435;-71
2022/10/02 12:51:35;;;;;;;9.87;2.07;;;17.20;95.90;;;;;;5012174;28;20397;-70
2022/10/02 12:54:48;;;;;;;3.63;1.60;;;17.10;90.00;;;;;;4960465;28;20512;-71
2022/10/02 12:57:54;;;;;;;4.80;2.63;;;16.90;89.80;;;;;;4962948;28;20860;-70
2022/10/02 13:00:25;;;;;;;4.00;1.80;;;17.00;90.50;;;;;;5026940;28;20395;-70
2022/10/02 13:03:39;;;;;;;5.37;1.70;;;17.20;83.70;;;;;;5015810;28;20425;-70
2022/10/02 13:06:41;;;;;;;6.27;1.87;;;17.40;79.70;;;;;;5014033;28;20499;-70
2022/10/02 13:09:26;;;;;;;3.90;1.87;;;17.60;77.00;;;;;;4965227;28;20474;-71
2022/10/02 13:12:36;;;;;;;2.57;1.37;;;17.40;71.10;;;;;;5026883;28;20456;-71
2022/10/02 13:15:25;;;;;;;7.37;2.37;;;17.30;71.40;;;;;;5017606;28;20419;-71
2022/10/02 13:18:01;;;;;;;2.73;2.10;;;17.10;67.70;;;;;;5027113;28;20529;-71
2022/10/02 13:20:38;;;;;;;8.57;2.70;;;16.90;67.60;;;;;;5008251;28;20403;-71
2022/10/02 13:23:29;;;;;;;4.80;2.53;;;16.70;71.50;;;;;;5018773;28;20475;-71
2022/10/02 13:26:12;;;;;;;3.93;1.90;;;16.60;72.20;;;;;;5012061;28;20438;-70
2022/10/02 13:28:57;;;;;;;4.20;2.20;;;16.40;78.40;;;;;;5014322;28;20894;-70
2022/10/02 13:31:41;;;;;;;6.17;3.57;;;16.20;79.20;;;;;;5023850;28;20940;-70
2022/10/02 13:34:33;;;;;;;6.33;1.97;;;16.00;85.10;;;;;;5007409;28;20432;-70
2022/10/02 13:37:15;;;;;;;2.90;1.83;;;16.00;88.50;;;;;;5034025;28;20776;-71
2022/10/02 13:40:15;;;;;;;9.07;2.43;;;15.90;92.60;;;;;;5009496;28;20894;-71
2022/10/02 13:42:54;;;;;;;6.07;2.13;;;15.80;93.00;;;;;;5030079;28;20437;-70
2022/10/02 13:45:29;;;;;;;8.30;2.20;;;15.70;94.70;;;;;;5006215;28;20417;-70
2022/10/02 13:48:05;;;;;;;7.30;2.03;;;15.60;97.00;;;;;;5031563;28;20430;-70
2022/10/02 13:50:47;;;;;;;4.23;2.07;;;15.60;96.60;;;;;;5025010;28;20459;-70
2022/10/02 13:53:34;;;;;;;5.17;3.07;;;15.70;97.30;;;;;;5010359;28;20429;-71
2022/10/02 13:56:17;;;;;;;5.50;2.40;;;15.90;97.40;;;;;;5021367;28;20453;-70
2022/10/02 13:59:11;;;;;;;3.57;3.27;;;16.10;95.60;;;;;;5012884;28;20463;-71
2022/10/02 14:01:53;;;;;;;4.03;2.40;;;16.20;95.60;;;;;;5029222;28;20456;-71
2022/10/02 14:04:37;;;;;;;6.23;1.90;;;16.20;94.60;;;;;;5023649;28;20400;-70
2022/10/02 14:07:22;;;;;;;4.83;1.23;;;16.20;94.60;;;;;;5011007;28;20444;-71
2022/10/02 14:09:58;;;;;;;7.57;2.63;;;16.30;93.50;;;;;;5042058;28;20406;-70
2022/10/02 14:12:36;;;;;;;3.43;2.03;;;16.40;93.60;;;;;;5021258;28;20400;-71
2022/10/02 14:15:30;;;;;;;4.27;2.13;;;16.70;92.60;;;;;;5021363;28;20982;-70
2022/10/02 14:18:24;;;;;;;4.03;1.47;;;16.90;84.60;;;;;;5018257;28;20940;-70
2022/10/02 14:21:02;;;;;;;3.10;1.00;;;16.90;72.50;;;;;;5016851;28;20432;-69
2022/10/02 14:23:59;;;;;;;7.30;1.77;;;16.80;67.50;;;;;;5021279;28;20458;-71
2022/10/02 14:26:44;;;;;;;6.80;2.03;;;16.70;64.70;;;;;;5014023;28;20985;-71
2022/10/02 14:29:31;;;;;;;3.07;1.20;;;16.70;62.40;;;;;;5013161;28;20498;-71
2022/10/02 14:32:11;;;;;;;2.60;1.33;;;16.60;63.70;;;;;;5003144;28;20430;-71